sensor_id;sensor_type;location;lat;lon;timestamp;P1;durP1;ratioP1;P2;durP2;ratioP2
61907;SDS011;47864;52.526;19.672;2023-01-23T00:00:45;50.45;;;24.08;;
61907;SDS011;47864;52.526;19.672;2023-01-23T00:02:48;48.25;;;24.70;;
61907;SDS011;47864;52.526;19.672;2023-01-23T00:04:50;44.70;;;21.67;;
61907;SDS011;47864;52.526;19.672;2023-01-23T00:06:51;38.80;;;20.77;;
61907;SDS011;47864;52.526;19.672;2023-01-23T00:08:54;40.85;;;19.95;;
61907;SDS011;47864;52.526;19.672;2023-01-23T00:10:56;45.42;;;21.80;;
61907;SDS011;47864;52.526;19.672;2023-01-23T00:12:58;41.97;;;20.35;;
61907;SDS011;47864;52.526;19.672;2023-01-23T00:15:00;40.25;;;20.40;;
61907;SDS011;47864;52.526;19.672;2023-01-23T00:17:02;40.42;;;20.40;;
61907;SDS011;47864;52.526;19.672;2023-01-23T00:19:04;37.38;;;20.75;;
61907;SDS011;47864;52.526;19.672;2023-01-23T00:21:07;35.58;;;20.27;;
61907;SDS011;47864;52.526;19.672;2023-01-23T00:23:11;40.05;;;20.70;;
61907;SDS011;47864;52.526;19.672;2023-01-23T00:25:13;38.22;;;21.17;;
61907;SDS011;47864;52.526;19.672;2023-01-23T00:27:15;39.38;;;20.40;;
61907;SDS011;47864;52.526;19.672;2023-01-23T00:29:17;37.38;;;20.52;;
61907;SDS011;47864;52.526;19.672;2023-01-23T00:31:20;35.95;;;19.05;;
61907;SDS011;47864;52.526;19.672;2023-01-23T00:33:25;37.17;;;19.65;;
61907;SDS011;47864;52.526;19.672;2023-01-23T00:35:27;35.92;;;19.55;;
61907;SDS011;47864;52.526;19.672;2023-01-23T00:37:28;36.25;;;18.90;;
61907;SDS011;47864;52.526;19.672;2023-01-23T00:39:30;38.47;;;20.08;;
61907;SDS011;47864;52.526;19.672;2023-01-23T00:41:32;48.13;;;24.60;;
61907;SDS011;47864;52.526;19.672;2023-01-23T00:43:34;52.28;;;25.65;;
61907;SDS011;47864;52.526;19.672;2023-01-23T00:45:36;44.08;;;21.88;;
61907;SDS011;47864;52.526;19.672;2023-01-23T00:47:38;40.78;;;19.48;;
61907;SDS011;47864;52.526;19.672;2023-01-23T00:49:40;36.72;;;18.52;;
61907;SDS011;47864;52.526;19.672;2023-01-23T00:51:42;39.00;;;19.67;;
61907;SDS011;47864;52.526;19.672;2023-01-23T00:53:44;34.13;;;18.73;;
61907;SDS011;47864;52.526;19.672;2023-01-23T00:55:46;39.47;;;19.75;;
61907;SDS011;47864;52.526;19.672;2023-01-23T00:57:48;40.70;;;19.92;;
61907;SDS011;47864;52.526;19.672;2023-01-23T00:59:50;34.63;;;19.58;;
61907;SDS011;47864;52.526;19.672;2023-01-23T01:01:51;47.10;;;23.25;;
61907;SDS011;47864;52.526;19.672;2023-01-23T01:03:53;47.33;;;22.48;;
61907;SDS011;47864;52.526;19.672;2023-01-23T01:05:55;36.95;;;19.38;;
61907;SDS011;47864;52.526;19.672;2023-01-23T01:07:57;36.65;;;20.20;;
61907;SDS011;47864;52.526;19.672;2023-01-23T01:09:59;36.42;;;18.75;;
61907;SDS011;47864;52.526;19.672;2023-01-23T01:12:01;35.85;;;20.40;;
61907;SDS011;47864;52.526;19.672;2023-01-23T01:14:02;40.42;;;20.98;;
61907;SDS011;47864;52.526;19.672;2023-01-23T01:16:04;33.85;;;18.02;;
61907;SDS011;47864;52.526;19.672;2023-01-23T01:18:07;37.47;;;20.00;;
61907;SDS011;47864;52.526;19.672;2023-01-23T01:20:09;37.33;;;19.45;;
61907;SDS011;47864;52.526;19.672;2023-01-23T01:22:11;42.85;;;22.90;;
61907;SDS011;47864;52.526;19.672;2023-01-23T01:24:13;45.45;;;21.70;;
61907;SDS011;47864;52.526;19.672;2023-01-23T01:26:15;37.90;;;21.50;;
61907;SDS011;47864;52.526;19.672;2023-01-23T01:28:17;40.65;;;20.95;;
61907;SDS011;47864;52.526;19.672;2023-01-23T01:30:19;40.03;;;19.98;;
61907;SDS011;47864;52.526;19.672;2023-01-23T01:32:21;41.95;;;19.08;;
61907;SDS011;47864;52.526;19.672;2023-01-23T01:34:23;39.65;;;20.85;;
61907;SDS011;47864;52.526;19.672;2023-01-23T01:36:25;38.58;;;20.63;;
61907;SDS011;47864;52.526;19.672;2023-01-23T01:38:27;32.92;;;18.20;;
61907;SDS011;47864;52.526;19.672;2023-01-23T01:40:31;33.97;;;18.65;;
61907;SDS011;47864;52.526;19.672;2023-01-23T01:42:38;36.05;;;19.48;;
61907;SDS011;47864;52.526;19.672;2023-01-23T01:44:52;39.42;;;21.40;;
61907;SDS011;47864;52.526;19.672;2023-01-23T01:46:59;31.83;;;17.90;;
61907;SDS011;47864;52.526;19.672;2023-01-23T01:49:11;38.35;;;19.05;;
61907;SDS011;47864;52.526;19.672;2023-01-23T01:51:19;36.45;;;18.40;;
61907;SDS011;47864;52.526;19.672;2023-01-23T01:53:25;42.22;;;19.23;;
61907;SDS011;47864;52.526;19.672;2023-01-23T01:55:29;38.53;;;20.25;;
61907;SDS011;47864;52.526;19.672;2023-01-23T01:57:33;44.17;;;20.13;;
61907;SDS011;47864;52.526;19.672;2023-01-23T01:59:44;43.72;;;22.20;;
61907;SDS011;47864;52.526;19.672;2023-01-23T02:01:48;45.35;;;23.13;;
61907;SDS011;47864;52.526;19.672;2023-01-23T02:03:53;39.83;;;21.48;;
61907;SDS011;47864;52.526;19.672;2023-01-23T02:05:55;41.60;;;20.27;;
61907;SDS011;47864;52.526;19.672;2023-01-23T02:08:11;40.65;;;20.42;;
61907;SDS011;47864;52.526;19.672;2023-01-23T02:10:14;34.40;;;17.63;;
61907;SDS011;47864;52.526;19.672;2023-01-23T02:12:16;39.03;;;19.08;;
61907;SDS011;47864;52.526;19.672;2023-01-23T02:14:18;37.08;;;19.10;;
61907;SDS011;47864;52.526;19.672;2023-01-23T02:16:22;39.73;;;21.23;;
61907;SDS011;47864;52.526;19.672;2023-01-23T02:18:27;43.22;;;21.52;;
61907;SDS011;47864;52.526;19.672;2023-01-23T02:20:30;43.47;;;21.25;;
61907;SDS011;47864;52.526;19.672;2023-01-23T02:27:30;54.47;;;25.67;;
61907;SDS011;47864;52.526;19.672;2023-01-23T02:29:39;39.70;;;22.05;;
61907;SDS011;47864;52.526;19.672;2023-01-23T02:31:42;38.53;;;18.52;;
61907;SDS011;47864;52.526;19.672;2023-01-23T02:33:45;42.90;;;19.77;;
61907;SDS011;47864;52.526;19.672;2023-01-23T02:35:49;40.70;;;20.95;;
61907;SDS011;47864;52.526;19.672;2023-01-23T02:37:51;41.15;;;21.08;;
61907;SDS011;47864;52.526;19.672;2023-01-23T02:39:56;41.33;;;22.92;;
61907;SDS011;47864;52.526;19.672;2023-01-23T02:41:57;44.78;;;21.52;;
61907;SDS011;47864;52.526;19.672;2023-01-23T02:44:04;43.33;;;20.67;;
61907;SDS011;47864;52.526;19.672;2023-01-23T02:46:12;37.67;;;21.02;;
61907;SDS011;47864;52.526;19.672;2023-01-23T02:48:14;39.13;;;20.30;;
61907;SDS011;47864;52.526;19.672;2023-01-23T02:50:16;43.80;;;22.10;;
61907;SDS011;47864;52.526;19.672;2023-01-23T02:52:18;40.78;;;22.30;;
61907;SDS011;47864;52.526;19.672;2023-01-23T02:54:20;41.10;;;22.13;;
61907;SDS011;47864;52.526;19.672;2023-01-23T02:56:22;42.17;;;20.33;;
61907;SDS011;47864;52.526;19.672;2023-01-23T02:58:24;44.45;;;20.80;;
61907;SDS011;47864;52.526;19.672;2023-01-23T03:00:26;45.58;;;22.38;;
61907;SDS011;47864;52.526;19.672;2023-01-23T03:02:28;41.55;;;20.88;;
61907;SDS011;47864;52.526;19.672;2023-01-23T03:04:30;36.85;;;20.73;;
61907;SDS011;47864;52.526;19.672;2023-01-23T03:06:32;51.88;;;24.15;;
61907;SDS011;47864;52.526;19.672;2023-01-23T03:08:36;43.67;;;24.67;;
61907;SDS011;47864;52.526;19.672;2023-01-23T03:10:37;51.00;;;27.65;;
61907;SDS011;47864;52.526;19.672;2023-01-23T03:12:39;40.72;;;24.40;;
61907;SDS011;47864;52.526;19.672;2023-01-23T03:14:41;40.28;;;24.63;;
61907;SDS011;47864;52.526;19.672;2023-01-23T03:16:43;41.17;;;24.73;;
61907;SDS011;47864;52.526;19.672;2023-01-23T03:18:45;45.35;;;26.70;;
61907;SDS011;47864;52.526;19.672;2023-01-23T03:20:55;38.47;;;24.05;;
61907;SDS011;47864;52.526;19.672;2023-01-23T03:23:01;42.65;;;24.40;;
61907;SDS011;47864;52.526;19.672;2023-01-23T03:25:03;46.10;;;25.33;;
61907;SDS011;47864;52.526;19.672;2023-01-23T03:27:05;43.45;;;23.30;;
61907;SDS011;47864;52.526;19.672;2023-01-23T03:29:10;42.10;;;22.92;;
61907;SDS011;47864;52.526;19.672;2023-01-23T03:31:15;44.83;;;24.50;;
61907;SDS011;47864;52.526;19.672;2023-01-23T03:33:17;42.38;;;23.85;;
61907;SDS011;47864;52.526;19.672;2023-01-23T03:35:19;51.40;;;27.00;;
61907;SDS011;47864;52.526;19.672;2023-01-23T03:37:21;47.55;;;26.33;;
61907;SDS011;47864;52.526;19.672;2023-01-23T03:39:23;45.88;;;24.40;;
61907;SDS011;47864;52.526;19.672;2023-01-23T03:41:25;44.85;;;24.00;;
61907;SDS011;47864;52.526;19.672;2023-01-23T03:43:30;48.00;;;24.45;;
61907;SDS011;47864;52.526;19.672;2023-01-23T03:45:33;43.67;;;25.33;;
61907;SDS011;47864;52.526;19.672;2023-01-23T03:47:35;50.05;;;25.90;;
61907;SDS011;47864;52.526;19.672;2023-01-23T03:49:36;42.72;;;25.35;;
61907;SDS011;47864;52.526;19.672;2023-01-23T03:51:38;50.70;;;27.13;;
61907;SDS011;47864;52.526;19.672;2023-01-23T03:53:40;48.13;;;23.98;;
61907;SDS011;47864;52.526;19.672;2023-01-23T03:55:44;43.75;;;23.95;;
61907;SDS011;47864;52.526;19.672;2023-01-23T03:57:46;42.15;;;22.77;;
61907;SDS011;47864;52.526;19.672;2023-01-23T03:59:48;45.78;;;23.20;;
61907;SDS011;47864;52.526;19.672;2023-01-23T04:01:50;41.58;;;22.73;;
61907;SDS011;47864;52.526;19.672;2023-01-23T04:03:52;43.15;;;22.73;;
61907;SDS011;47864;52.526;19.672;2023-01-23T04:05:54;44.63;;;22.13;;
61907;SDS011;47864;52.526;19.672;2023-01-23T04:07:57;42.97;;;22.48;;
61907;SDS011;47864;52.526;19.672;2023-01-23T04:09:59;44.20;;;24.02;;
61907;SDS011;47864;52.526;19.672;2023-01-23T04:12:00;46.72;;;23.48;;
61907;SDS011;47864;52.526;19.672;2023-01-23T04:14:02;47.60;;;23.85;;
61907;SDS011;47864;52.526;19.672;2023-01-23T04:16:04;52.15;;;25.30;;
61907;SDS011;47864;52.526;19.672;2023-01-23T04:18:07;47.05;;;25.83;;
61907;SDS011;47864;52.526;19.672;2023-01-23T04:20:10;45.72;;;24.70;;
61907;SDS011;47864;52.526;19.672;2023-01-23T04:22:12;44.63;;;23.75;;
61907;SDS011;47864;52.526;19.672;2023-01-23T04:24:15;46.67;;;23.58;;
61907;SDS011;47864;52.526;19.672;2023-01-23T04:26:17;44.17;;;23.75;;
61907;SDS011;47864;52.526;19.672;2023-01-23T04:28:19;47.50;;;23.00;;
61907;SDS011;47864;52.526;19.672;2023-01-23T04:30:21;48.45;;;24.17;;
61907;SDS011;47864;52.526;19.672;2023-01-23T04:32:23;44.33;;;24.80;;
61907;SDS011;47864;52.526;19.672;2023-01-23T04:34:25;48.20;;;24.63;;
61907;SDS011;47864;52.526;19.672;2023-01-23T04:36:27;53.60;;;23.05;;
61907;SDS011;47864;52.526;19.672;2023-01-23T04:38:30;42.75;;;21.25;;
61907;SDS011;47864;52.526;19.672;2023-01-23T04:40:33;50.13;;;22.00;;
61907;SDS011;47864;52.526;19.672;2023-01-23T04:42:35;43.67;;;21.50;;
61907;SDS011;47864;52.526;19.672;2023-01-23T04:44:36;45.55;;;21.58;;
61907;SDS011;47864;52.526;19.672;2023-01-23T04:46:38;46.67;;;21.65;;
61907;SDS011;47864;52.526;19.672;2023-01-23T04:48:40;51.13;;;22.08;;
61907;SDS011;47864;52.526;19.672;2023-01-23T04:50:42;49.40;;;24.30;;
61907;SDS011;47864;52.526;19.672;2023-01-23T04:52:44;47.13;;;23.48;;
61907;SDS011;47864;52.526;19.672;2023-01-23T04:54:46;51.17;;;27.60;;
61907;SDS011;47864;52.526;19.672;2023-01-23T04:56:48;48.38;;;23.50;;
61907;SDS011;47864;52.526;19.672;2023-01-23T04:58:50;42.38;;;20.20;;
61907;SDS011;47864;52.526;19.672;2023-01-23T05:00:51;85.88;;;38.78;;
61907;SDS011;47864;52.526;19.672;2023-01-23T05:02:53;142.15;;;54.58;;
61907;SDS011;47864;52.526;19.672;2023-01-23T05:04:56;131.97;;;54.40;;
61907;SDS011;47864;52.526;19.672;2023-01-23T05:06:57;74.53;;;37.83;;
61907;SDS011;47864;52.526;19.672;2023-01-23T05:08:59;65.43;;;28.23;;
61907;SDS011;47864;52.526;19.672;2023-01-23T05:11:01;51.55;;;23.67;;
61907;SDS011;47864;52.526;19.672;2023-01-23T05:13:03;60.03;;;26.00;;
61907;SDS011;47864;52.526;19.672;2023-01-23T05:15:06;53.45;;;24.13;;
61907;SDS011;47864;52.526;19.672;2023-01-23T05:19:10;50.45;;;21.70;;
61907;SDS011;47864;52.526;19.672;2023-01-23T05:21:12;59.88;;;25.00;;
61907;SDS011;47864;52.526;19.672;2023-01-23T05:23:14;67.07;;;29.92;;
61907;SDS011;47864;52.526;19.672;2023-01-23T05:25:20;58.83;;;25.10;;
61907;SDS011;47864;52.526;19.672;2023-01-23T05:27:24;48.38;;;24.48;;
61907;SDS011;47864;52.526;19.672;2023-01-23T05:29:26;51.10;;;23.45;;
61907;SDS011;47864;52.526;19.672;2023-01-23T05:31:28;51.78;;;23.38;;
61907;SDS011;47864;52.526;19.672;2023-01-23T05:33:30;47.67;;;22.70;;
61907;SDS011;47864;52.526;19.672;2023-01-23T05:35:32;43.15;;;21.38;;
61907;SDS011;47864;52.526;19.672;2023-01-23T05:37:33;47.78;;;22.35;;
61907;SDS011;47864;52.526;19.672;2023-01-23T05:39:35;55.05;;;23.92;;
61907;SDS011;47864;52.526;19.672;2023-01-23T05:41:37;49.08;;;24.52;;
61907;SDS011;47864;52.526;19.672;2023-01-23T05:43:39;53.28;;;23.90;;
61907;SDS011;47864;52.526;19.672;2023-01-23T05:45:41;87.38;;;32.72;;
61907;SDS011;47864;52.526;19.672;2023-01-23T05:47:43;64.15;;;28.08;;
61907;SDS011;47864;52.526;19.672;2023-01-23T05:49:45;57.03;;;24.45;;
61907;SDS011;47864;52.526;19.672;2023-01-23T05:51:47;68.47;;;28.10;;
61907;SDS011;47864;52.526;19.672;2023-01-23T05:53:48;54.45;;;25.65;;
61907;SDS011;47864;52.526;19.672;2023-01-23T05:55:50;48.40;;;22.17;;
61907;SDS011;47864;52.526;19.672;2023-01-23T05:57:52;52.22;;;24.20;;
61907;SDS011;47864;52.526;19.672;2023-01-23T05:59:54;49.08;;;24.40;;
61907;SDS011;47864;52.526;19.672;2023-01-23T06:01:55;50.28;;;23.65;;
61907;SDS011;47864;52.526;19.672;2023-01-23T06:03:57;52.97;;;24.98;;
61907;SDS011;47864;52.526;19.672;2023-01-23T06:06:00;50.35;;;25.15;;
61907;SDS011;47864;52.526;19.672;2023-01-23T06:08:02;49.08;;;24.27;;
61907;SDS011;47864;52.526;19.672;2023-01-23T06:10:04;46.58;;;23.92;;
61907;SDS011;47864;52.526;19.672;2023-01-23T06:12:10;47.15;;;25.52;;
61907;SDS011;47864;52.526;19.672;2023-01-23T06:14:12;45.35;;;23.70;;
61907;SDS011;47864;52.526;19.672;2023-01-23T06:16:13;50.80;;;24.35;;
61907;SDS011;47864;52.526;19.672;2023-01-23T06:18:16;49.22;;;22.85;;
61907;SDS011;47864;52.526;19.672;2023-01-23T06:20:17;46.25;;;23.05;;
61907;SDS011;47864;52.526;19.672;2023-01-23T06:22:20;45.28;;;23.08;;
61907;SDS011;47864;52.526;19.672;2023-01-23T06:24:22;44.90;;;23.23;;
61907;SDS011;47864;52.526;19.672;2023-01-23T06:26:24;47.10;;;24.05;;
61907;SDS011;47864;52.526;19.672;2023-01-23T06:28:26;47.50;;;25.10;;
61907;SDS011;47864;52.526;19.672;2023-01-23T06:30:28;50.80;;;26.30;;
61907;SDS011;47864;52.526;19.672;2023-01-23T06:32:30;46.00;;;23.70;;
61907;SDS011;47864;52.526;19.672;2023-01-23T06:34:32;50.42;;;23.30;;
61907;SDS011;47864;52.526;19.672;2023-01-23T06:36:33;51.67;;;25.05;;
61907;SDS011;47864;52.526;19.672;2023-01-23T06:38:35;45.05;;;22.58;;
61907;SDS011;47864;52.526;19.672;2023-01-23T06:40:37;48.60;;;24.23;;
61907;SDS011;47864;52.526;19.672;2023-01-23T06:42:39;52.05;;;25.08;;
61907;SDS011;47864;52.526;19.672;2023-01-23T06:44:41;46.05;;;24.90;;
61907;SDS011;47864;52.526;19.672;2023-01-23T06:46:43;47.88;;;25.92;;
61907;SDS011;47864;52.526;19.672;2023-01-23T06:48:45;55.03;;;28.27;;
61907;SDS011;47864;52.526;19.672;2023-01-23T06:50:47;53.05;;;28.25;;
61907;SDS011;47864;52.526;19.672;2023-01-23T06:52:49;53.63;;;27.65;;
61907;SDS011;47864;52.526;19.672;2023-01-23T06:54:51;54.65;;;26.45;;
61907;SDS011;47864;52.526;19.672;2023-01-23T06:56:53;46.30;;;25.52;;
61907;SDS011;47864;52.526;19.672;2023-01-23T06:58:55;94.00;;;41.17;;
61907;SDS011;47864;52.526;19.672;2023-01-23T07:00:56;54.40;;;25.67;;
61907;SDS011;47864;52.526;19.672;2023-01-23T07:02:59;107.68;;;47.25;;
61907;SDS011;47864;52.526;19.672;2023-01-23T07:05:01;56.50;;;27.10;;
61907;SDS011;47864;52.526;19.672;2023-01-23T07:07:04;62.60;;;34.47;;
61907;SDS011;47864;52.526;19.672;2023-01-23T07:09:06;58.70;;;32.17;;
61907;SDS011;47864;52.526;19.672;2023-01-23T07:11:08;54.65;;;28.77;;
61907;SDS011;47864;52.526;19.672;2023-01-23T07:13:10;79.90;;;44.97;;
61907;SDS011;47864;52.526;19.672;2023-01-23T07:15:12;67.18;;;44.22;;
61907;SDS011;47864;52.526;19.672;2023-01-23T07:17:14;71.68;;;42.65;;
61907;SDS011;47864;52.526;19.672;2023-01-23T07:19:15;55.90;;;32.05;;
61907;SDS011;47864;52.526;19.672;2023-01-23T07:21:17;61.72;;;35.60;;
61907;SDS011;47864;52.526;19.672;2023-01-23T07:23:19;57.25;;;30.90;;
61907;SDS011;47864;52.526;19.672;2023-01-23T07:25:22;56.22;;;32.75;;
61907;SDS011;47864;52.526;19.672;2023-01-23T07:27:25;56.08;;;32.30;;
61907;SDS011;47864;52.526;19.672;2023-01-23T07:29:27;58.10;;;33.08;;
61907;SDS011;47864;52.526;19.672;2023-01-23T07:31:29;54.40;;;29.08;;
61907;SDS011;47864;52.526;19.672;2023-01-23T07:33:31;64.00;;;36.15;;
61907;SDS011;47864;52.526;19.672;2023-01-23T07:35:32;59.58;;;33.83;;
61907;SDS011;47864;52.526;19.672;2023-01-23T07:37:35;62.20;;;36.67;;
61907;SDS011;47864;52.526;19.672;2023-01-23T07:39:36;72.93;;;40.05;;
61907;SDS011;47864;52.526;19.672;2023-01-23T07:41:38;70.95;;;38.55;;
61907;SDS011;47864;52.526;19.672;2023-01-23T07:43:42;67.50;;;38.80;;
61907;SDS011;47864;52.526;19.672;2023-01-23T07:45:44;73.10;;;39.58;;
61907;SDS011;47864;52.526;19.672;2023-01-23T07:47:46;72.57;;;41.22;;
61907;SDS011;47864;52.526;19.672;2023-01-23T07:49:48;90.75;;;51.28;;
61907;SDS011;47864;52.526;19.672;2023-01-23T07:51:50;75.10;;;40.67;;
61907;SDS011;47864;52.526;19.672;2023-01-23T07:53:51;78.47;;;39.72;;
61907;SDS011;47864;52.526;19.672;2023-01-23T07:55:53;57.88;;;33.67;;
61907;SDS011;47864;52.526;19.672;2023-01-23T07:57:55;67.95;;;37.75;;
61907;SDS011;47864;52.526;19.672;2023-01-23T07:59:57;68.00;;;41.10;;
61907;SDS011;47864;52.526;19.672;2023-01-23T08:01:59;55.15;;;33.30;;
61907;SDS011;47864;52.526;19.672;2023-01-23T08:04:01;59.67;;;37.75;;
61907;SDS011;47864;52.526;19.672;2023-01-23T08:06:03;59.35;;;35.92;;
61907;SDS011;47864;52.526;19.672;2023-01-23T08:08:05;58.25;;;33.42;;
61907;SDS011;47864;52.526;19.672;2023-01-23T08:10:14;62.50;;;32.13;;
61907;SDS011;47864;52.526;19.672;2023-01-23T08:12:16;53.60;;;27.45;;
61907;SDS011;47864;52.526;19.672;2023-01-23T08:14:18;45.20;;;25.30;;
61907;SDS011;47864;52.526;19.672;2023-01-23T08:16:20;77.13;;;36.38;;
61907;SDS011;47864;52.526;19.672;2023-01-23T08:18:22;68.15;;;35.55;;
61907;SDS011;47864;52.526;19.672;2023-01-23T08:20:24;53.38;;;24.90;;
61907;SDS011;47864;52.526;19.672;2023-01-23T08:22:25;95.05;;;43.95;;
61907;SDS011;47864;52.526;19.672;2023-01-23T08:24:27;56.97;;;27.67;;
61907;SDS011;47864;52.526;19.672;2023-01-23T08:26:29;56.95;;;30.90;;
61907;SDS011;47864;52.526;19.672;2023-01-23T08:28:31;54.47;;;27.70;;
61907;SDS011;47864;52.526;19.672;2023-01-23T08:30:32;70.13;;;33.90;;
61907;SDS011;47864;52.526;19.672;2023-01-23T08:32:34;58.95;;;27.70;;
61907;SDS011;47864;52.526;19.672;2023-01-23T08:34:36;56.88;;;26.05;;
61907;SDS011;47864;52.526;19.672;2023-01-23T08:36:38;61.28;;;26.95;;
61907;SDS011;47864;52.526;19.672;2023-01-23T08:38:40;63.55;;;31.27;;
61907;SDS011;47864;52.526;19.672;2023-01-23T08:40:42;53.38;;;27.27;;
61907;SDS011;47864;52.526;19.672;2023-01-23T08:42:43;62.10;;;33.40;;
61907;SDS011;47864;52.526;19.672;2023-01-23T08:44:45;50.53;;;25.40;;
61907;SDS011;47864;52.526;19.672;2023-01-23T08:46:47;67.97;;;35.00;;
61907;SDS011;47864;52.526;19.672;2023-01-23T08:48:49;60.53;;;29.67;;
61907;SDS011;47864;52.526;19.672;2023-01-23T08:50:56;46.03;;;25.73;;
61907;SDS011;47864;52.526;19.672;2023-01-23T08:52:59;57.05;;;27.33;;
61907;SDS011;47864;52.526;19.672;2023-01-23T08:55:01;63.80;;;33.35;;
61907;SDS011;47864;52.526;19.672;2023-01-23T08:57:03;68.53;;;33.65;;
61907;SDS011;47864;52.526;19.672;2023-01-23T08:59:05;81.15;;;40.22;;
61907;SDS011;47864;52.526;19.672;2023-01-23T09:01:13;76.35;;;35.38;;
61907;SDS011;47864;52.526;19.672;2023-01-23T09:03:18;57.33;;;31.15;;
61907;SDS011;47864;52.526;19.672;2023-01-23T09:05:20;49.67;;;27.30;;
61907;SDS011;47864;52.526;19.672;2023-01-23T09:07:22;51.28;;;26.38;;
61907;SDS011;47864;52.526;19.672;2023-01-23T09:09:24;51.65;;;28.05;;
61907;SDS011;47864;52.526;19.672;2023-01-23T09:11:25;55.22;;;30.40;;
61907;SDS011;47864;52.526;19.672;2023-01-23T09:13:27;49.03;;;26.08;;
61907;SDS011;47864;52.526;19.672;2023-01-23T09:15:29;50.67;;;26.17;;
61907;SDS011;47864;52.526;19.672;2023-01-23T09:17:31;50.80;;;24.73;;
61907;SDS011;47864;52.526;19.672;2023-01-23T09:19:33;50.25;;;27.40;;
61907;SDS011;47864;52.526;19.672;2023-01-23T09:21:35;89.22;;;35.97;;
61907;SDS011;47864;52.526;19.672;2023-01-23T09:23:37;101.72;;;40.53;;
61907;SDS011;47864;52.526;19.672;2023-01-23T09:25:39;102.80;;;38.05;;
61907;SDS011;47864;52.526;19.672;2023-01-23T09:27:41;69.68;;;29.77;;
61907;SDS011;47864;52.526;19.672;2023-01-23T09:29:43;75.80;;;32.22;;
61907;SDS011;47864;52.526;19.672;2023-01-23T09:31:45;51.47;;;28.77;;
61907;SDS011;47864;52.526;19.672;2023-01-23T09:33:47;74.88;;;34.35;;
61907;SDS011;47864;52.526;19.672;2023-01-23T09:35:52;58.22;;;31.70;;
61907;SDS011;47864;52.526;19.672;2023-01-23T09:37:54;64.32;;;31.58;;
61907;SDS011;47864;52.526;19.672;2023-01-23T09:39:59;131.38;;;42.75;;
61907;SDS011;47864;52.526;19.672;2023-01-23T09:42:04;62.83;;;27.70;;
61907;SDS011;47864;52.526;19.672;2023-01-23T09:44:14;78.68;;;35.38;;
61907;SDS011;47864;52.526;19.672;2023-01-23T09:46:32;58.90;;;27.13;;
61907;SDS011;47864;52.526;19.672;2023-01-23T09:48:45;70.63;;;32.05;;
61907;SDS011;47864;52.526;19.672;2023-01-23T09:50:55;59.00;;;26.77;;
61907;SDS011;47864;52.526;19.672;2023-01-23T09:53:11;45.42;;;25.10;;
61907;SDS011;47864;52.526;19.672;2023-01-23T09:55:49;53.22;;;26.38;;
61907;SDS011;47864;52.526;19.672;2023-01-23T09:58:03;53.00;;;25.08;;
61907;SDS011;47864;52.526;19.672;2023-01-23T10:02:24;59.30;;;25.90;;
61907;SDS011;47864;52.526;19.672;2023-01-23T10:04:27;65.65;;;29.48;;
61907;SDS011;47864;52.526;19.672;2023-01-23T10:17:12;49.08;;;26.95;;
61907;SDS011;47864;52.526;19.672;2023-01-23T10:26:48;49.63;;;24.35;;
61907;SDS011;47864;52.526;19.672;2023-01-23T10:28:50;59.90;;;27.70;;
61907;SDS011;47864;52.526;19.672;2023-01-23T10:30:58;49.30;;;25.65;;
61907;SDS011;47864;52.526;19.672;2023-01-23T10:33:14;47.33;;;24.25;;
61907;SDS011;47864;52.526;19.672;2023-01-23T10:39:58;44.85;;;26.05;;
61907;SDS011;47864;52.526;19.672;2023-01-23T10:42:07;43.67;;;25.38;;
61907;SDS011;47864;52.526;19.672;2023-01-23T10:44:15;43.65;;;22.38;;
61907;SDS011;47864;52.526;19.672;2023-01-23T10:46:20;42.22;;;22.35;;
61907;SDS011;47864;52.526;19.672;2023-01-23T10:50:36;37.25;;;21.40;;
61907;SDS011;47864;52.526;19.672;2023-01-23T10:52:39;49.75;;;24.50;;
61907;SDS011;47864;52.526;19.672;2023-01-23T10:54:45;44.95;;;22.27;;
61907;SDS011;47864;52.526;19.672;2023-01-23T10:56:52;44.30;;;24.75;;
61907;SDS011;47864;52.526;19.672;2023-01-23T10:58:57;43.00;;;21.38;;
61907;SDS011;47864;52.526;19.672;2023-01-23T11:01:01;35.97;;;20.35;;
61907;SDS011;47864;52.526;19.672;2023-01-23T11:05:34;49.30;;;27.00;;
61907;SDS011;47864;52.526;19.672;2023-01-23T11:07:53;47.38;;;26.35;;
61907;SDS011;47864;52.526;19.672;2023-01-23T11:09:56;41.10;;;21.92;;
61907;SDS011;47864;52.526;19.672;2023-01-23T11:12:14;62.50;;;34.35;;
61907;SDS011;47864;52.526;19.672;2023-01-23T11:14:19;78.57;;;38.50;;
61907;SDS011;47864;52.526;19.672;2023-01-23T11:16:21;62.58;;;26.02;;
61907;SDS011;47864;52.526;19.672;2023-01-23T11:18:31;46.50;;;27.17;;
61907;SDS011;47864;52.526;19.672;2023-01-23T11:20:36;51.15;;;28.17;;
61907;SDS011;47864;52.526;19.672;2023-01-23T11:22:40;64.85;;;29.23;;
61907;SDS011;47864;52.526;19.672;2023-01-23T11:24:42;50.00;;;24.08;;
61907;SDS011;47864;52.526;19.672;2023-01-23T11:26:43;49.63;;;23.38;;
61907;SDS011;47864;52.526;19.672;2023-01-23T11:28:47;41.05;;;22.55;;
61907;SDS011;47864;52.526;19.672;2023-01-23T11:33:00;66.57;;;31.83;;
61907;SDS011;47864;52.526;19.672;2023-01-23T11:35:14;174.25;;;49.90;;
61907;SDS011;47864;52.526;19.672;2023-01-23T11:37:24;178.77;;;50.03;;
61907;SDS011;47864;52.526;19.672;2023-01-23T11:41:35;106.00;;;40.97;;
61907;SDS011;47864;52.526;19.672;2023-01-23T11:43:37;126.47;;;41.05;;
61907;SDS011;47864;52.526;19.672;2023-01-23T11:50:42;151.98;;;62.72;;
61907;SDS011;47864;52.526;19.672;2023-01-23T11:53:13;74.95;;;34.58;;
61907;SDS011;47864;52.526;19.672;2023-01-23T12:05:07;181.93;;;62.15;;
61907;SDS011;47864;52.526;19.672;2023-01-23T12:07:17;206.25;;;119.25;;
61907;SDS011;47864;52.526;19.672;2023-01-23T12:09:32;139.88;;;53.20;;
61907;SDS011;47864;52.526;19.672;2023-01-23T12:14:01;94.63;;;53.15;;
61907;SDS011;47864;52.526;19.672;2023-01-23T12:25:32;52.90;;;28.88;;
61907;SDS011;47864;52.526;19.672;2023-01-23T12:32:09;99.40;;;41.45;;
61907;SDS011;47864;52.526;19.672;2023-01-23T12:41:49;38.53;;;22.73;;
61907;SDS011;47864;52.526;19.672;2023-01-23T12:44:15;63.90;;;34.28;;
61907;SDS011;47864;52.526;19.672;2023-01-23T12:46:29;74.57;;;37.63;;
61907;SDS011;47864;52.526;19.672;2023-01-23T12:51:03;42.45;;;26.38;;
61907;SDS011;47864;52.526;19.672;2023-01-23T12:53:12;42.45;;;26.15;;
61907;SDS011;47864;52.526;19.672;2023-01-23T12:55:18;54.30;;;35.03;;
61907;SDS011;47864;52.526;19.672;2023-01-23T12:57:21;36.28;;;23.48;;
61907;SDS011;47864;52.526;19.672;2023-01-23T12:59:46;39.95;;;22.38;;
61907;SDS011;47864;52.526;19.672;2023-01-23T13:16:52;43.45;;;24.42;;
61907;SDS011;47864;52.526;19.672;2023-01-23T13:18:55;51.40;;;25.30;;
61907;SDS011;47864;52.526;19.672;2023-01-23T13:20:59;75.22;;;34.33;;
61907;SDS011;47864;52.526;19.672;2023-01-23T13:23:20;96.85;;;42.22;;
61907;SDS011;47864;52.526;19.672;2023-01-23T13:25:22;99.28;;;42.55;;
61907;SDS011;47864;52.526;19.672;2023-01-23T13:27:45;54.47;;;28.60;;
61907;SDS011;47864;52.526;19.672;2023-01-23T13:29:50;85.65;;;41.83;;